createdAt,value
2017-07-03T00:00:28.570Z,91.45
2017-07-03T00:01:34.252Z,91.50
2017-07-03T00:02:28.425Z,91.40
2017-07-03T00:03:28.612Z,91.41
2017-07-03T00:04:28.777Z,91.37
2017-07-03T00:05:28.927Z,91.13
2017-07-03T00:06:33.293Z,91.02
2017-07-03T00:07:33.571Z,90.83
2017-07-03T00:08:28.922Z,91.03
2017-07-03T00:09:33.239Z,91.14
2017-07-03T00:10:33.499Z,91.17
2017-07-03T00:11:33.793Z,91.28
2017-07-03T00:12:28.976Z,91.23
2017-07-03T00:13:33.254Z,91.29
2017-07-03T00:14:28.450Z,91.42
2017-07-03T00:15:33.755Z,91.30
2017-07-03T00:16:29.027Z,91.53
2017-07-03T00:17:28.027Z,91.43
2017-07-03T00:18:28.456Z,91.70
2017-07-03T00:19:33.776Z,91.66
2017-07-03T00:20:34.073Z,91.20
2017-07-03T00:21:33.468Z,91.22
2017-07-03T00:22:38.753Z,91.22
2017-07-03T00:23:34.051Z,91.28
2017-07-03T00:24:28.529Z,90.94
2017-07-03T00:25:28.721Z,91.39
2017-07-03T00:26:33.921Z,91.39
2017-07-03T00:27:22.502Z,91.64
2017-07-03T00:28:33.844Z,91.69
2017-07-03T00:29:34.142Z,91.31
2017-07-03T00:30:27.681Z,91.06
2017-07-03T00:31:28.560Z,91.38
2017-07-03T00:32:33.853Z,92.28
2017-07-03T00:33:29.052Z,92.26
2017-07-03T00:34:31.097Z,92.46
2017-07-03T00:35:33.670Z,92.84
2017-07-03T00:36:34.082Z,92.67
2017-07-03T00:37:29.171Z,92.74
2017-07-03T00:38:33.884Z,93.11
2017-07-03T00:39:29.077Z,93.10
2017-07-03T00:40:24.124Z,93.19
2017-07-03T00:41:33.427Z,93.72
2017-07-03T00:42:28.624Z,94.42
2017-07-03T00:43:28.830Z,94.18
2017-07-03T00:44:29.038Z,94.20
2017-07-03T00:45:30.597Z,93.69
2017-07-03T00:46:29.044Z,93.78
2017-07-03T00:47:28.533Z,93.79
2017-07-03T00:48:33.799Z,93.86
2017-07-03T00:49:34.088Z,93.81
2017-07-03T00:50:28.545Z,93.92
2017-07-03T00:51:28.864Z,94.55
2017-07-03T00:52:29.354Z,94.02
2017-07-03T00:53:28.790Z,93.42
2017-07-03T00:54:29.001Z,93.17
2017-07-03T00:55:33.264Z,92.92
2017-07-03T00:56:28.765Z,92.75
2017-07-03T00:57:34.848Z,92.90
2017-07-03T00:58:29.051Z,92.38
2017-07-03T00:59:33.336Z,92.91
2017-07-03T01:00:23.625Z,92.66
2017-07-03T01:01:38.634Z,92.53
2017-07-03T01:02:28.831Z,92.54
2017-07-03T01:03:28.990Z,92.03
2017-07-03T01:04:33.251Z,92.29
2017-07-03T01:05:28.748Z,92.29
2017-07-03T01:06:29.037Z,92.48
2017-07-03T01:07:28.065Z,91.79
2017-07-03T01:08:33.354Z,91.87
2017-07-03T01:09:33.761Z,91.34
2017-07-03T01:10:28.964Z,90.99
2017-07-03T01:11:27.968Z,90.79
2017-07-03T01:12:33.256Z,90.91
2017-07-03T01:13:27.821Z,91.24
2017-07-03T01:14:34.126Z,91.35
2017-07-03T01:15:33.431Z,91.08
2017-07-03T01:16:33.748Z,90.94
2017-07-03T01:17:34.194Z,91.11
2017-07-03T01:18:28.675Z,91.45
2017-07-03T01:19:28.870Z,91.52
2017-07-03T01:20:34.165Z,90.74
2017-07-03T01:21:33.570Z,90.99
2017-07-03T01:22:28.711Z,90.99
2017-07-03T01:23:28.897Z,91.14
2017-07-03T01:24:29.394Z,91.14
2017-07-03T01:25:28.252Z,91.38
2017-07-03T01:26:33.546Z,91.66
2017-07-03T01:27:33.962Z,91.48
2017-07-03T01:28:33.237Z,91.73
2017-07-03T01:29:28.394Z,92.09
2017-07-03T01:30:28.441Z,91.71
2017-07-03T01:31:38.758Z,91.71
2017-07-03T01:32:28.932Z,91.47
2017-07-03T01:33:27.714Z,91.37
2017-07-03T01:34:33.903Z,91.39
2017-07-03T01:35:34.215Z,91.53
2017-07-03T01:36:28.505Z,91.76
2017-07-03T01:37:33.801Z,91.77
2017-07-03T01:38:34.080Z,92.03
2017-07-03T01:39:33.395Z,92.37
2017-07-03T01:40:28.897Z,92.80
2017-07-03T01:41:34.364Z,92.37
2017-07-03T01:42:28.141Z,92.65
2017-07-03T01:43:28.614Z,92.95
2017-07-03T01:44:33.923Z,92.71
2017-07-03T01:45:33.226Z,92.67
2017-07-03T01:46:33.664Z,92.74
2017-07-03T01:47:33.974Z,92.67
2017-07-03T01:48:28.189Z,92.44
2017-07-03T01:49:28.733Z,93.04
2017-07-03T01:50:28.913Z,93.27
2017-07-03T01:51:34.265Z,93.31
2017-07-03T01:52:33.525Z,93.50
2017-07-03T01:53:28.900Z,93.50
2017-07-03T01:54:34.194Z,93.37
2017-07-03T01:55:28.670Z,93.59
2017-07-03T01:56:28.773Z,93.47
2017-07-03T01:57:28.934Z,93.59
2017-07-03T01:58:33.230Z,93.80
2017-07-03T01:59:33.538Z,93.97
2017-07-03T02:00:34.544Z,94.04
2017-07-03T02:01:38.656Z,93.87
2017-07-03T02:02:28.832Z,93.71
2017-07-03T02:03:28.861Z,93.69
2017-07-03T02:04:29.033Z,94.31
2017-07-03T02:05:33.326Z,94.58
2017-07-03T02:06:33.746Z,94.61
2017-07-03T02:07:28.943Z,94.71
2017-07-03T02:08:27.990Z,94.93
2017-07-03T02:09:27.994Z,94.90
2017-07-03T02:10:22.485Z,94.85
2017-07-03T02:11:28.944Z,95.11
2017-07-03T02:12:22.597Z,95.82
2017-07-03T02:13:28.821Z,95.41
2017-07-03T02:14:34.216Z,95.17
2017-07-03T02:15:28.449Z,95.46
2017-07-03T02:16:33.738Z,95.45
2017-07-03T02:17:34.173Z,95.23
2017-07-03T02:18:33.474Z,95.51
2017-07-03T02:19:34.668Z,95.30
2017-07-03T02:20:28.881Z,94.86
2017-07-03T02:21:34.224Z,95.03
2017-07-03T02:22:32.983Z,95.31
2017-07-03T02:23:33.387Z,94.92
2017-07-03T02:24:33.669Z,94.72
2017-07-03T02:25:28.865Z,95.54
2017-07-03T02:26:29.030Z,95.55
2017-07-03T02:27:28.508Z,95.83
2017-07-03T02:28:34.758Z,95.35
2017-07-03T02:29:24.257Z,94.95
2017-07-03T02:30:33.632Z,95.01
2017-07-03T02:31:33.736Z,94.89
2017-07-03T02:32:28.935Z,94.68
2017-07-03T02:33:33.234Z,94.95
2017-07-03T02:34:28.723Z,95.26
2017-07-03T02:35:28.965Z,94.87
2017-07-03T02:36:33.284Z,94.65
2017-07-03T02:37:28.769Z,94.90
2017-07-03T02:38:28.992Z,95.08
2017-07-03T02:39:33.297Z,95.05
2017-07-03T02:40:28.783Z,95.06
2017-07-03T02:41:28.977Z,95.11
2017-07-03T02:42:33.242Z,94.85
2017-07-03T02:43:28.430Z,94.74
2017-07-03T02:44:28.984Z,95.24
2017-07-03T02:45:33.244Z,95.46
2017-07-03T02:46:28.447Z,95.10
2017-07-03T02:47:28.596Z,95.17
2017-07-03T02:48:28.835Z,95.20
2017-07-03T02:49:29.063Z,94.98
2017-07-03T02:50:28.540Z,95.14
2017-07-03T02:51:28.804Z,95.34
2017-07-03T02:52:29.283Z,95.38
2017-07-03T02:53:28.739Z,95.24
2017-07-03T02:54:28.804Z,95.73
2017-07-03T02:55:34.060Z,95.74
2017-07-03T02:56:33.347Z,95.64
2017-07-03T02:57:24.656Z,95.67
2017-07-03T02:58:33.953Z,95.50
2017-07-03T02:59:28.028Z,95.84
2017-07-03T03:00:28.253Z,96.49
2017-07-03T03:01:33.485Z,96.64
2017-07-03T03:02:28.924Z,96.67
2017-07-03T03:03:28.024Z,96.51
2017-07-03T03:04:28.237Z,95.75
2017-07-03T03:05:28.272Z,95.79
2017-07-03T03:06:28.788Z,96.59
2017-07-03T03:07:34.062Z,95.87
2017-07-03T03:08:33.375Z,96.07
2017-07-03T03:09:28.853Z,96.05
2017-07-03T03:10:29.057Z,95.29
2017-07-03T03:11:28.234Z,95.60
2017-07-03T03:12:28.730Z,95.44
2017-07-03T03:13:34.035Z,95.51
2017-07-03T03:14:30.631Z,95.62
2017-07-03T03:15:34.792Z,95.21
2017-07-03T03:16:28.947Z,95.44
2017-07-03T03:17:33.366Z,95.18
2017-07-03T03:18:28.863Z,95.81
2017-07-03T03:19:30.971Z,95.02
2017-07-03T03:20:33.214Z,94.92
2017-07-03T03:21:33.496Z,94.84
2017-07-03T03:22:28.668Z,94.77
2017-07-03T03:23:29.135Z,94.71
2017-07-03T03:24:33.659Z,95.05
2017-07-03T03:25:33.958Z,95.10
2017-07-03T03:26:33.221Z,94.68
2017-07-03T03:27:33.525Z,95.05
2017-07-03T03:28:28.621Z,95.89
2017-07-03T03:29:33.933Z,95.85
2017-07-03T03:30:33.338Z,95.19
2017-07-03T03:31:38.296Z,95.75
2017-07-03T03:32:33.586Z,95.56
2017-07-03T03:33:29.080Z,95.01
2017-07-03T03:34:28.241Z,95.63
2017-07-03T03:35:28.720Z,95.63
2017-07-03T03:36:34.126Z,96.00
2017-07-03T03:37:28.575Z,95.57
2017-07-03T03:38:33.872Z,95.52
2017-07-03T03:39:34.161Z,96.32
2017-07-03T03:40:33.937Z,95.92
2017-07-03T03:41:33.207Z,95.41
2017-07-03T03:42:28.697Z,95.85
2017-07-03T03:43:33.976Z,96.03
2017-07-03T03:44:33.246Z,96.20
2017-07-03T03:45:28.445Z,96.23
2017-07-03T03:46:28.935Z,96.84
2017-07-03T03:47:33.111Z,96.68
2017-07-03T03:48:33.181Z,96.82
2017-07-03T03:49:33.466Z,96.38
2017-07-03T03:50:33.774Z,96.56
2017-07-03T03:51:34.182Z,96.48
2017-07-03T03:52:33.480Z,96.59
2017-07-03T03:53:33.802Z,96.66
2017-07-03T03:54:34.110Z,96.96
2017-07-03T03:55:28.432Z,97.12
2017-07-03T03:56:28.493Z,96.46
2017-07-03T03:57:33.800Z,96.15
2017-07-03T03:58:34.105Z,95.97
2017-07-03T03:59:27.633Z,96.26
2017-07-03T04:00:28.424Z,96.34
2017-07-03T04:01:28.863Z,96.27
2017-07-03T04:02:35.831Z,96.41
2017-07-03T04:03:34.147Z,96.26
2017-07-03T04:04:33.436Z,96.34
2017-07-03T04:05:29.493Z,96.45
2017-07-03T04:06:28.828Z,96.59
2017-07-03T04:07:28.668Z,96.27
2017-07-03T04:08:28.248Z,96.39
2017-07-03T04:09:28.734Z,96.61
2017-07-03T04:10:34.028Z,97.03
2017-07-03T04:11:33.337Z,96.47
2017-07-03T04:12:33.661Z,96.13
2017-07-03T04:13:33.941Z,95.93
2017-07-03T04:14:28.020Z,95.58
2017-07-03T04:15:28.493Z,95.52
2017-07-03T04:16:28.665Z,95.29
2017-07-03T04:17:34.102Z,95.01
2017-07-03T04:18:33.367Z,95.12
2017-07-03T04:19:28.818Z,95.40
2017-07-03T04:20:34.094Z,95.19
2017-07-03T04:21:33.504Z,95.77
2017-07-03T04:22:28.964Z,95.80
2017-07-03T04:23:28.022Z,95.88
2017-07-03T04:24:28.266Z,95.45
2017-07-03T04:25:12.683Z,95.35
2017-07-03T04:26:28.205Z,95.21
2017-07-03T04:27:28.661Z,95.43
2017-07-03T04:28:29.128Z,95.45
2017-07-03T04:29:33.416Z,95.55
2017-07-03T04:30:23.867Z,95.83
2017-07-03T04:31:39.601Z,95.48
2017-07-03T04:32:33.920Z,95.63
2017-07-03T04:33:34.032Z,95.48
2017-07-03T04:34:33.358Z,95.21
2017-07-03T04:35:28.818Z,95.22
2017-07-03T04:36:28.993Z,95.05
2017-07-03T04:37:27.971Z,94.92
2017-07-03T04:38:27.997Z,94.90
2017-07-03T04:39:27.986Z,95.13
2017-07-03T04:40:28.028Z,94.47
2017-07-03T04:41:34.209Z,94.70
2017-07-03T04:42:28.269Z,94.96
2017-07-03T04:43:33.561Z,94.58
2017-07-03T04:44:33.895Z,93.94
2017-07-03T04:45:29.088Z,94.67
2017-07-03T04:46:28.250Z,94.18
2017-07-03T04:47:33.528Z,93.86
2017-07-03T04:48:33.846Z,93.72
2017-07-03T04:49:34.205Z,93.84
2017-07-03T04:50:33.510Z,93.84
2017-07-03T04:51:33.617Z,93.46
2017-07-03T04:52:33.898Z,93.49
2017-07-03T04:53:29.387Z,93.96
2017-07-03T04:54:33.664Z,93.56
2017-07-03T04:55:33.905Z,93.85
2017-07-03T04:56:29.388Z,94.28
2017-07-03T04:57:33.208Z,94.30
2017-07-03T04:58:33.506Z,95.10
2017-07-03T04:59:33.788Z,95.03
2017-07-03T05:00:34.081Z,94.66
2017-07-03T05:01:24.120Z,94.69
2017-07-03T05:02:33.864Z,94.63
2017-07-03T05:03:34.141Z,94.59
2017-07-03T05:04:27.850Z,95.01
2017-07-03T05:05:34.138Z,94.86
2017-07-03T05:06:28.288Z,94.66
2017-07-03T05:07:28.472Z,95.55
2017-07-03T05:08:30.697Z,95.05
2017-07-03T05:09:28.171Z,95.12
2017-07-03T05:10:28.377Z,95.04
2017-07-03T05:11:34.468Z,95.13
2017-07-03T05:12:28.906Z,94.63
2017-07-03T05:13:19.981Z,94.65
2017-07-03T05:14:33.886Z,95.19
2017-07-03T05:15:34.208Z,94.56
2017-07-03T05:16:28.387Z,94.99
2017-07-03T05:17:28.418Z,94.83
2017-07-03T05:18:33.638Z,94.99
2017-07-03T05:19:33.909Z,95.40
2017-07-03T05:20:34.976Z,95.30
2017-07-03T05:21:33.134Z,94.79
2017-07-03T05:22:28.330Z,94.28
2017-07-03T05:23:28.537Z,94.73
2017-07-03T05:24:33.836Z,94.62
2017-07-03T05:25:34.093Z,94.50
2017-07-03T05:26:33.384Z,94.77
2017-07-03T05:27:33.438Z,94.58
2017-07-03T05:28:33.766Z,94.27
2017-07-03T05:29:34.060Z,94.17
2017-07-03T05:30:28.550Z,94.50
2017-07-03T05:31:28.728Z,94.47
2017-07-03T05:32:28.906Z,94.13
2017-07-03T05:33:29.132Z,94.15
2017-07-03T05:34:33.466Z,94.73
2017-07-03T05:35:33.816Z,94.87
2017-07-03T05:36:34.131Z,94.50
2017-07-03T05:37:33.678Z,94.42
2017-07-03T05:38:33.985Z,94.63
2017-07-03T05:39:33.256Z,94.11
2017-07-03T05:40:33.509Z,94.12
2017-07-03T05:41:29.087Z,94.07
2017-07-03T05:42:28.554Z,93.94
2017-07-03T05:43:28.152Z,94.16
2017-07-03T05:44:28.627Z,93.91
2017-07-03T05:45:28.738Z,93.54
2017-07-03T05:46:28.946Z,94.09
2017-07-03T05:47:28.035Z,94.13
2017-07-03T05:48:28.369Z,93.86
2017-07-03T05:49:28.573Z,93.82
2017-07-03T05:50:28.871Z,93.97
2017-07-03T05:51:34.241Z,94.30
2017-07-03T05:52:28.402Z,94.23
2017-07-03T05:53:33.701Z,94.23
2017-07-03T05:54:33.984Z,93.98
2017-07-03T05:55:33.256Z,93.77
2017-07-03T05:56:28.733Z,93.64
2017-07-03T05:57:34.043Z,93.69
2017-07-03T05:58:28.505Z,93.90
2017-07-03T05:59:28.702Z,93.57
2017-07-03T06:00:29.153Z,93.59
2017-07-03T06:01:24.881Z,93.20
2017-07-03T06:02:29.287Z,93.71
2017-07-03T06:03:27.329Z,92.95
2017-07-03T06:04:28.506Z,92.57
2017-07-03T06:05:34.718Z,92.70
2017-07-03T06:06:33.160Z,92.78
2017-07-03T06:07:33.445Z,92.42
2017-07-03T06:08:30.474Z,92.92
2017-07-03T06:09:33.435Z,91.98
2017-07-03T06:10:29.390Z,91.71
2017-07-03T06:11:28.561Z,91.54
2017-07-03T06:12:18.754Z,92.24
2017-07-03T06:13:28.298Z,92.83
2017-07-03T06:14:28.524Z,92.86
2017-07-03T06:15:28.635Z,92.62
2017-07-03T06:16:28.857Z,92.64
2017-07-03T06:17:29.234Z,92.19
2017-07-03T06:18:33.556Z,91.50
2017-07-03T06:19:29.046Z,90.95
2017-07-03T06:20:28.246Z,90.45
2017-07-03T06:21:28.406Z,89.77
2017-07-03T06:22:34.569Z,89.68
2017-07-03T06:23:33.943Z,89.57
2017-07-03T06:24:27.606Z,89.50
2017-07-03T06:25:33.931Z,89.48
2017-07-03T06:26:33.231Z,89.37
2017-07-03T06:27:33.649Z,89.06
2017-07-03T06:28:27.103Z,89.19
2017-07-03T06:29:33.391Z,89.17
2017-07-03T06:30:33.650Z,89.22
2017-07-03T06:31:20.883Z,89.08
2017-07-03T06:32:24.611Z,88.74
2017-07-03T06:33:38.965Z,88.76
2017-07-03T06:34:27.997Z,88.63
2017-07-03T06:35:27.957Z,88.59
2017-07-03T06:36:22.480Z,88.37
2017-07-03T06:37:29.045Z,88.48
2017-07-03T06:38:28.251Z,88.51
2017-07-03T06:39:28.305Z,88.32
2017-07-03T06:40:28.535Z,88.31
2017-07-03T06:41:34.203Z,88.29
2017-07-03T06:42:24.138Z,88.18
2017-07-03T06:43:33.497Z,87.99
2017-07-03T06:44:33.857Z,87.84
2017-07-03T06:45:34.254Z,87.76
2017-07-03T06:46:28.309Z,87.95
2017-07-03T06:47:28.409Z,87.87
2017-07-03T06:48:33.661Z,88.10
2017-07-03T06:49:24.049Z,88.44
2017-07-03T06:50:40.380Z,88.87
2017-07-03T06:51:33.807Z,89.19
2017-07-03T06:52:29.030Z,88.81
2017-07-03T06:53:33.354Z,88.53
2017-07-03T06:54:33.629Z,88.44
2017-07-03T06:55:23.298Z,88.54
2017-07-03T06:56:28.777Z,88.17
2017-07-03T06:57:34.087Z,87.79
2017-07-03T06:58:34.198Z,87.75
2017-07-03T06:59:28.711Z,87.92
2017-07-03T07:00:28.924Z,88.03
2017-07-03T07:01:28.026Z,88.30
2017-07-03T07:02:28.218Z,88.56
2017-07-03T07:03:28.684Z,88.67
2017-07-03T07:04:28.883Z,88.53
2017-07-03T07:05:38.976Z,88.70
2017-07-03T07:06:28.406Z,88.83
2017-07-03T07:07:33.710Z,88.18
2017-07-03T07:08:29.178Z,87.94
2017-07-03T07:09:28.379Z,87.58
2017-07-03T07:10:28.550Z,87.38
2017-07-03T07:11:33.821Z,87.34
2017-07-03T07:12:34.072Z,86.85
2017-07-03T07:13:33.329Z,86.29
2017-07-03T07:14:33.614Z,85.96
2017-07-03T07:15:29.076Z,85.47
2017-07-03T07:16:28.297Z,85.38
2017-07-03T07:17:33.736Z,85.01
2017-07-03T07:18:28.916Z,85.17
2017-07-03T07:19:33.225Z,85.37
2017-07-03T07:20:38.213Z,85.36
2017-07-03T07:21:28.372Z,85.31
2017-07-03T07:22:33.662Z,85.34
2017-07-03T07:23:33.946Z,85.32
2017-07-03T07:24:33.229Z,85.53
2017-07-03T07:25:33.530Z,85.30
2017-07-03T07:26:33.789Z,84.69
2017-07-03T07:27:29.242Z,84.73
2017-07-03T07:28:33.528Z,84.79
2017-07-03T07:29:28.768Z,84.85
2017-07-03T07:30:34.104Z,84.80
2017-07-03T07:31:34.221Z,84.18
2017-07-03T07:32:28.412Z,83.67
2017-07-03T07:33:33.705Z,83.16
2017-07-03T07:34:34.067Z,82.46
2017-07-03T07:35:28.552Z,82.53
2017-07-03T07:36:33.830Z,82.81
2017-07-03T07:37:34.200Z,82.92
2017-07-03T07:38:33.508Z,82.83
2017-07-03T07:39:31.675Z,82.75
2017-07-03T07:40:33.930Z,82.82
2017-07-03T07:41:30.182Z,83.22
2017-07-03T07:42:33.394Z,82.99
2017-07-03T07:43:33.702Z,83.27
2017-07-03T07:44:33.753Z,83.15
2017-07-03T07:45:34.049Z,82.74
2017-07-03T07:46:33.346Z,82.36
2017-07-03T07:47:33.630Z,82.30
2017-07-03T07:48:33.959Z,82.24
2017-07-03T07:49:28.978Z,82.33
2017-07-03T07:50:38.628Z,82.50
2017-07-03T07:51:28.942Z,82.58
2017-07-03T07:52:33.433Z,82.64
2017-07-03T07:53:23.969Z,82.47
2017-07-03T07:54:28.014Z,82.05
2017-07-03T07:55:28.118Z,82.02
2017-07-03T07:56:27.199Z,82.10
2017-07-03T07:57:28.370Z,82.00
2017-07-03T07:58:33.660Z,81.90
2017-07-03T07:59:28.831Z,82.15
2017-07-03T08:00:29.287Z,82.14
2017-07-03T08:01:33.666Z,81.95
2017-07-03T08:02:28.849Z,81.97
2017-07-03T08:03:34.189Z,82.43
2017-07-03T08:04:28.260Z,82.34
2017-07-03T08:05:28.474Z,82.44
2017-07-03T08:06:33.710Z,82.77
2017-07-03T08:07:33.936Z,83.63
2017-07-03T08:08:28.046Z,83.24
2017-07-03T08:09:33.359Z,83.50
2017-07-03T08:10:33.654Z,83.10
2017-07-03T08:11:33.952Z,82.55
2017-07-03T08:12:28.951Z,82.33
2017-07-03T08:13:33.218Z,82.32
2017-07-03T08:14:28.392Z,82.67
2017-07-03T08:15:28.423Z,83.06
2017-07-03T08:16:28.894Z,83.18
2017-07-03T08:17:34.349Z,83.27
2017-07-03T08:18:33.639Z,82.83
2017-07-03T08:19:33.957Z,82.05
2017-07-03T08:20:33.271Z,81.45
2017-07-03T08:21:33.590Z,81.44
2017-07-03T08:22:33.871Z,81.39
2017-07-03T08:23:29.341Z,81.67
2017-07-03T08:24:28.597Z,81.35
2017-07-03T08:25:28.734Z,81.42
2017-07-03T08:26:23.401Z,81.26
2017-07-03T08:27:33.720Z,81.21
2017-07-03T08:28:33.988Z,80.58
2017-07-03T08:29:28.010Z,80.35
2017-07-03T08:30:28.196Z,80.82
2017-07-03T08:31:28.663Z,81.18
2017-07-03T08:32:34.736Z,80.96
2017-07-03T08:33:28.973Z,80.37
2017-07-03T08:34:27.993Z,80.66
2017-07-03T08:35:33.208Z,80.90
2017-07-03T08:36:28.663Z,81.17
2017-07-03T08:37:28.994Z,81.72
2017-07-03T08:38:27.989Z,81.50
2017-07-03T08:39:28.185Z,80.82
2017-07-03T08:40:28.298Z,79.87
2017-07-03T08:41:28.780Z,79.96
2017-07-03T08:42:29.004Z,79.91
2017-07-03T08:43:24.138Z,80.13
2017-07-03T08:44:33.449Z,80.04
2017-07-03T08:45:33.760Z,80.00
2017-07-03T08:46:29.237Z,79.88
2017-07-03T08:47:33.536Z,80.22
2017-07-03T08:48:28.768Z,80.82
2017-07-03T08:49:28.327Z,81.38
2017-07-03T08:50:38.741Z,81.35
2017-07-03T08:51:34.083Z,80.07
2017-07-03T08:52:28.285Z,79.83
2017-07-03T08:53:28.311Z,79.77
2017-07-03T08:54:28.502Z,80.35
2017-07-03T08:55:28.234Z,80.43
2017-07-03T08:56:28.707Z,79.23
2017-07-03T08:57:28.909Z,79.42
2017-07-03T08:58:29.369Z,79.41
2017-07-03T08:59:28.818Z,79.36
2017-07-03T09:00:29.033Z,79.61
2017-07-03T09:01:33.249Z,78.97
2017-07-03T09:02:33.541Z,79.02
2017-07-03T09:03:33.805Z,78.23
2017-07-03T09:04:28.858Z,78.27
2017-07-03T09:05:29.034Z,78.31
2017-07-03T09:06:28.197Z,77.40
2017-07-03T09:07:28.402Z,77.60
2017-07-03T09:08:34.241Z,77.22
2017-07-03T09:09:28.408Z,76.94
2017-07-03T09:10:28.559Z,76.97
2017-07-03T09:11:28.609Z,77.46
2017-07-03T09:12:29.069Z,77.69
2017-07-03T09:13:29.281Z,78.45
2017-07-03T09:14:33.598Z,78.18
2017-07-03T09:15:28.781Z,78.20
2017-07-03T09:16:29.514Z,78.82
2017-07-03T09:17:28.764Z,78.34
2017-07-03T09:18:28.903Z,77.84
2017-07-03T09:19:29.690Z,77.29
2017-07-03T09:20:28.793Z,76.99
2017-07-03T09:21:29.236Z,76.18
2017-07-03T09:22:28.276Z,76.07
2017-07-03T09:23:33.496Z,75.57
2017-07-03T09:24:28.711Z,75.13
2017-07-03T09:25:33.944Z,75.49
2017-07-03T09:26:23.481Z,75.08
2017-07-03T09:27:33.750Z,75.06
2017-07-03T09:28:29.025Z,75.24
2017-07-03T09:29:33.300Z,74.68
2017-07-03T09:30:33.569Z,75.32
2017-07-03T09:31:33.860Z,76.16
2017-07-03T09:32:29.066Z,76.51
2017-07-03T09:33:28.110Z,76.72
2017-07-03T09:34:28.141Z,77.01
2017-07-03T09:35:33.443Z,77.09
2017-07-03T09:36:33.753Z,77.21
2017-07-03T09:37:24.314Z,76.89
2017-07-03T09:38:28.507Z,76.78
2017-07-03T09:39:28.547Z,76.81
2017-07-03T09:40:28.694Z,76.13
2017-07-03T09:41:28.866Z,75.99
2017-07-03T09:42:29.039Z,75.90
2017-07-03T09:43:33.321Z,76.07
2017-07-03T09:44:33.603Z,75.93
2017-07-03T09:45:33.889Z,75.66
2017-07-03T09:46:29.356Z,76.14
2017-07-03T09:47:33.658Z,76.58
2017-07-03T09:48:33.968Z,74.90
2017-07-03T09:49:28.017Z,74.64
2017-07-03T09:50:28.202Z,74.78
2017-07-03T09:51:27.989Z,75.08
2017-07-03T09:52:28.021Z,74.84
2017-07-03T09:53:27.994Z,74.38
2017-07-03T09:54:27.960Z,74.37
2017-07-03T09:55:24.573Z,74.38
2017-07-03T09:56:33.901Z,73.64
2017-07-03T09:57:34.198Z,73.69
2017-07-03T09:58:33.506Z,73.60
2017-07-03T09:59:28.739Z,73.09
2017-07-03T10:00:28.756Z,73.09
2017-07-03T10:01:28.922Z,72.93
2017-07-03T10:02:28.038Z,72.49
2017-07-03T10:03:28.223Z,72.80
2017-07-03T10:04:33.499Z,73.01
2017-07-03T10:05:33.505Z,72.68
2017-07-03T10:06:33.825Z,72.91
2017-07-03T10:07:34.117Z,72.71
2017-07-03T10:08:33.366Z,71.99
2017-07-03T10:09:28.556Z,72.28
2017-07-03T10:10:34.238Z,72.30
2017-07-03T10:15:33.688Z,72.80
2017-07-03T10:16:28.854Z,72.65
2017-07-03T10:17:29.181Z,71.97
2017-07-03T10:18:28.680Z,68.67
2017-07-03T10:19:28.903Z,68.79
2017-07-03T10:20:29.027Z,69.28
2017-07-03T10:21:19.801Z,69.60
2017-07-03T10:22:29.144Z,69.50
2017-07-03T10:23:28.366Z,70.01
2017-07-03T10:24:28.591Z,70.37
2017-07-03T10:25:23.940Z,70.40
2017-07-03T10:26:33.272Z,70.51
2017-07-03T10:27:28.429Z,70.10
2017-07-03T10:28:28.648Z,70.22
2017-07-03T10:29:29.121Z,69.78
2017-07-03T10:30:28.448Z,68.77
2017-07-03T10:31:28.660Z,68.37
2017-07-03T10:32:29.116Z,68.45
2017-07-03T10:33:28.327Z,67.91
2017-07-03T10:34:28.387Z,68.11
2017-07-03T10:35:27.976Z,68.50
2017-07-03T10:36:33.366Z,68.72
2017-07-03T10:37:29.418Z,68.20
2017-07-03T10:38:28.608Z,68.73
2017-07-03T10:39:33.907Z,69.04
2017-07-03T10:40:33.237Z,69.78
2017-07-03T10:41:33.528Z,69.90
2017-07-03T10:42:29.063Z,68.36
2017-07-03T10:43:33.369Z,67.34
2017-07-03T10:44:28.400Z,66.97
2017-07-03T10:45:28.597Z,66.38
2017-07-03T10:46:33.874Z,66.96
2017-07-03T10:47:29.016Z,67.28
2017-07-03T10:48:33.313Z,67.38
2017-07-03T10:49:28.459Z,67.28
2017-07-03T10:50:28.924Z,67.07
2017-07-03T10:51:33.221Z,65.62
2017-07-03T10:52:33.565Z,67.02
2017-07-03T10:53:33.851Z,66.61
2017-07-03T10:54:34.162Z,65.68
2017-07-03T10:55:28.594Z,65.12
2017-07-03T10:56:33.963Z,65.43
2017-07-03T10:57:41.298Z,66.08
2017-07-03T10:58:33.603Z,64.40
2017-07-03T10:59:33.865Z,62.75
2017-07-03T11:00:33.983Z,60.91
2017-07-03T11:01:23.971Z,61.68
2017-07-03T11:02:33.252Z,60.79
2017-07-03T11:03:33.546Z,60.79
2017-07-03T11:04:28.742Z,59.93
2017-07-03T11:05:10.710Z,60.59
2017-07-03T11:06:33.668Z,60.93
2017-07-03T11:07:33.960Z,61.10
2017-07-03T11:08:27.876Z,61.12
2017-07-03T11:09:34.208Z,60.73
2017-07-03T11:10:28.412Z,61.21
2017-07-03T11:11:33.677Z,61.53
2017-07-03T11:12:29.154Z,60.84
2017-07-03T11:13:28.355Z,61.40
2017-07-03T11:14:28.806Z,62.08
2017-07-03T11:15:35.295Z,62.33
2017-07-03T11:16:28.801Z,62.70
2017-07-03T11:17:34.208Z,63.37
2017-07-03T11:18:33.509Z,64.37
2017-07-03T11:19:28.962Z,64.30
2017-07-03T11:20:28.113Z,64.58
2017-07-03T11:22:33.901Z,65.81
2017-07-03T11:23:29.057Z,65.84
2017-07-03T11:24:33.337Z,64.89
2017-07-03T11:25:34.133Z,65.14
2017-07-03T11:26:33.486Z,66.02
2017-07-03T11:27:28.942Z,66.20
2017-07-03T11:28:28.040Z,66.14
2017-07-03T11:29:28.225Z,65.57
2017-07-03T11:30:28.468Z,63.75
2017-07-03T11:31:27.988Z,63.53
2017-07-03T11:32:33.292Z,63.41
2017-07-03T11:33:28.515Z,63.51
2017-07-03T11:34:28.719Z,63.54
2017-07-03T11:35:33.955Z,63.69
2017-07-03T11:36:33.232Z,61.67
2017-07-03T11:37:33.505Z,61.29
2017-07-03T11:38:34.013Z,60.88
2017-07-03T11:39:28.207Z,61.24
2017-07-03T11:40:33.507Z,60.42
2017-07-03T11:41:28.366Z,60.39
2017-07-03T11:42:28.814Z,60.87
2017-07-03T11:43:34.103Z,61.35
2017-07-03T11:44:28.606Z,61.39
2017-07-03T11:45:33.832Z,59.81
2017-07-03T11:46:28.922Z,60.51
2017-07-03T11:47:33.213Z,60.36
2017-07-03T11:48:28.697Z,59.19
2017-07-03T11:49:28.911Z,59.96
2017-07-03T11:50:29.337Z,59.46
2017-07-03T11:51:28.558Z,58.64
2017-07-03T11:52:33.877Z,57.69
2017-07-03T11:53:34.169Z,58.63
2017-07-03T11:54:34.855Z,57.90
2017-07-03T11:55:29.005Z,58.03
2017-07-03T11:56:28.241Z,56.84
2017-07-03T11:57:33.944Z,55.52
2017-07-03T11:58:33.309Z,56.49
2017-07-03T11:59:33.782Z,55.53
2017-07-03T12:00:34.072Z,55.23
2017-07-03T12:01:28.236Z,55.68
2017-07-03T12:02:33.507Z,56.44
2017-07-03T12:03:33.806Z,57.43
2017-07-03T12:04:28.986Z,58.78
2017-07-03T12:05:33.250Z,58.73
2017-07-03T12:06:33.472Z,58.53
2017-07-03T12:07:33.775Z,59.31
2017-07-03T12:08:34.115Z,59.09
2017-07-03T12:09:33.429Z,59.15
2017-07-03T12:10:28.896Z,59.40
2017-07-03T12:11:30.085Z,59.72
2017-07-03T12:12:29.524Z,60.07
2017-07-03T12:13:29.000Z,58.69
2017-07-03T12:14:24.807Z,58.11
2017-07-03T12:15:28.369Z,58.02
2017-07-03T12:16:23.131Z,58.49
2017-07-03T12:17:33.975Z,57.44
2017-07-03T12:18:33.231Z,55.65
2017-07-03T12:19:28.688Z,56.07
2017-07-03T12:20:33.973Z,54.66
2017-07-03T12:21:28.017Z,54.67
2017-07-03T12:22:33.288Z,55.05
2017-07-03T12:23:28.746Z,55.28
2017-07-03T12:24:34.040Z,55.91
2017-07-03T12:25:28.499Z,56.24
2017-07-03T12:26:33.811Z,56.55
2017-07-03T12:27:34.126Z,57.26
2017-07-03T12:28:33.687Z,56.84
2017-07-03T12:29:33.989Z,56.16
2017-07-03T12:30:28.464Z,56.47
2017-07-03T12:31:33.755Z,56.00
2017-07-03T12:32:28.883Z,55.40
2017-07-03T12:33:29.075Z,56.32
2017-07-03T12:34:28.490Z,56.78
2017-07-03T12:35:28.727Z,55.89
2017-07-03T12:36:28.881Z,54.83
2017-07-03T12:37:28.457Z,55.73
2017-07-03T12:38:33.753Z,55.61
2017-07-03T12:39:29.203Z,55.69
2017-07-03T12:40:28.368Z,57.41
2017-07-03T12:41:28.537Z,58.49
2017-07-03T12:42:34.366Z,58.27
2017-07-03T12:43:27.927Z,59.18
2017-07-03T12:44:33.236Z,57.38
2017-07-03T12:45:28.450Z,58.27
2017-07-03T12:46:33.756Z,57.77
2017-07-03T12:47:28.926Z,57.51
2017-07-03T12:48:33.212Z,57.92
2017-07-03T12:49:28.414Z,58.49
2017-07-03T12:50:28.634Z,58.19
2017-07-03T12:51:28.867Z,59.03
2017-07-03T12:52:23.528Z,59.18
2017-07-03T12:53:23.217Z,56.72
2017-07-03T12:54:28.294Z,57.17
2017-07-03T12:55:24.548Z,57.86
2017-07-03T12:56:33.806Z,57.43
2017-07-03T12:57:34.093Z,56.53